createdAt,value
2018-07-07T00:00:47.139Z,20.76
2018-07-07T00:06:42.144Z,14.54
2018-07-07T00:12:37.153Z,23.55
2018-07-07T00:18:32.202Z,14.57
2018-07-07T00:24:27.149Z,12.15
2018-07-07T00:30:22.159Z,13.85
2018-07-07T00:36:17.138Z,14.51
2018-07-07T00:42:12.256Z,18.26
2018-07-07T00:48:07.202Z,17.54
2018-07-07T00:54:02.243Z,13.81
2018-07-07T00:59:57.214Z,14.58
2018-07-07T01:05:52.207Z,13.33
2018-07-07T01:11:47.238Z,16.52
2018-07-07T01:17:42.215Z,17.63
2018-07-07T01:23:37.324Z,13.23
2018-07-07T01:29:32.364Z,22.96
2018-07-07T01:35:27.236Z,17.1
2018-07-07T01:41:22.207Z,16.54
2018-07-07T01:47:17.201Z,19.46
2018-07-07T01:53:12.279Z,12.98
2018-07-07T01:59:07.231Z,15.89
2018-07-07T02:05:02.228Z,14
2018-07-07T02:10:57.205Z,17.04
2018-07-07T02:16:52.232Z,15.42
2018-07-07T02:22:47.227Z,11.73
2018-07-07T02:28:42.296Z,16.39
2018-07-07T02:34:37.251Z,12.29
2018-07-07T02:40:32.263Z,15.83
2018-07-07T02:46:27.362Z,12.78
2018-07-07T02:52:22.240Z,11.44
2018-07-07T02:58:17.258Z,21.98
2018-07-07T03:04:12.230Z,21
2018-07-07T03:10:07.239Z,20.2
2018-07-07T03:16:02.260Z,16.7
2018-07-07T03:21:57.401Z,15.45
2018-07-07T03:27:52.365Z,12.53
2018-07-07T03:33:47.242Z,14.1
2018-07-07T03:39:42.258Z,12.8
2018-07-07T03:45:37.263Z,16.09
2018-07-07T03:51:32.407Z,12.8
2018-07-07T03:57:27.288Z,11.81
2018-07-07T04:03:22.259Z,11.89
2018-07-07T04:09:17.294Z,14.92
2018-07-07T04:15:12.294Z,16.41
2018-07-07T04:21:07.289Z,16.51
2018-07-07T04:27:02.280Z,15.52
2018-07-07T04:32:57.299Z,27.4
2018-07-07T04:38:52.297Z,28.48
2018-07-07T04:44:47.337Z,25.8
2018-07-07T04:50:42.326Z,22.53
2018-07-07T04:56:37.306Z,17.59
2018-07-07T05:02:32.341Z,16.91
2018-07-07T05:08:27.301Z,12
2018-07-07T05:14:22.464Z,16.35
2018-07-07T05:20:17.321Z,13.3
2018-07-07T05:26:12.330Z,16.13
2018-07-07T05:32:07.400Z,14.6
2018-07-07T05:38:02.357Z,16.35
2018-07-07T05:43:57.367Z,22.07
2018-07-07T05:49:52.374Z,23.46
2018-07-07T05:55:47.376Z,26.47
2018-07-07T06:01:42.339Z,31.78
2018-07-07T06:07:37.404Z,27.92
2018-07-07T06:13:32.349Z,28.1
2018-07-07T06:19:27.486Z,22.28
2018-07-07T06:25:22.399Z,25.2
2018-07-07T06:31:17.411Z,25.74
2018-07-07T06:37:12.432Z,29.51
2018-07-07T06:43:07.371Z,44.51
2018-07-07T06:49:02.365Z,22.56
2018-07-07T06:54:57.410Z,27.71
2018-07-07T07:00:52.399Z,26.71
2018-07-07T07:06:47.373Z,22.88
2018-07-07T07:12:42.383Z,20.84
2018-07-07T07:18:37.482Z,27.04
2018-07-07T07:24:32.417Z,24.61
2018-07-07T07:30:27.439Z,22.13
2018-07-07T07:36:22.482Z,19.52
2018-07-07T07:42:17.408Z,19.17
2018-07-07T07:48:12.401Z,24.24
2018-07-07T07:54:07.418Z,24.93
2018-07-07T08:00:03.192Z,18.87
2018-07-07T08:05:57.465Z,18.96
2018-07-07T08:11:52.429Z,27.12
2018-07-07T08:17:47.447Z,21.14
2018-07-07T08:23:42.440Z,28.75
2018-07-07T08:29:37.466Z,18.95
2018-07-07T08:35:32.483Z,19.02
2018-07-07T08:41:27.503Z,20.33
2018-07-07T08:47:22.445Z,22.04
2018-07-07T08:53:17.455Z,16.6
2018-07-07T08:59:12.428Z,11.77
2018-07-07T09:05:07.575Z,13.25
2018-07-07T09:11:02.448Z,14.9
2018-07-07T09:16:57.451Z,13.8
2018-07-07T09:22:52.448Z,9.53
2018-07-07T09:28:47.481Z,13.3
2018-07-07T09:34:42.566Z,8.17
2018-07-07T09:40:37.602Z,14.97
2018-07-07T09:46:32.485Z,15.57
2018-07-07T09:52:27.498Z,11.38
2018-07-07T09:58:22.497Z,10.53
2018-07-07T10:04:17.491Z,8.2
2018-07-07T10:10:12.645Z,13.02
2018-07-07T10:16:07.513Z,10.34
2018-07-07T10:22:02.528Z,8.88
2018-07-07T10:27:57.541Z,12.64
2018-07-07T10:33:52.552Z,9.07
2018-07-07T10:39:47.503Z,6.61
2018-07-07T10:45:42.604Z,7.05
2018-07-07T10:51:37.569Z,8.5
2018-07-07T10:57:32.538Z,4.98
2018-07-07T11:03:27.533Z,5.54
2018-07-07T11:09:22.542Z,3.71
2018-07-07T11:15:17.544Z,6.9
2018-07-07T11:21:12.547Z,5.43
2018-07-07T11:27:07.547Z,7.67
2018-07-07T11:33:02.536Z,3.43
2018-07-07T11:38:57.563Z,3.97
2018-07-07T11:44:52.548Z,4.27
2018-07-07T11:50:47.569Z,2.26
2018-07-07T11:56:42.556Z,1.8
2018-07-07T12:02:37.591Z,2.99
2018-07-07T12:08:32.685Z,3.04
2018-07-07T12:14:27.630Z,1.8
2018-07-07T12:20:22.566Z,1.7
2018-07-07T12:26:17.589Z,5.6
2018-07-07T12:32:12.610Z,3.15
2018-07-07T12:38:07.582Z,1.82
2018-07-07T12:44:02.588Z,4.19
2018-07-07T12:49:57.585Z,6.21
2018-07-07T12:55:52.632Z,3.88
2018-07-07T13:01:47.635Z,4.33
2018-07-07T13:07:42.672Z,2.5
2018-07-07T13:13:37.603Z,2.58
2018-07-07T13:19:32.602Z,3.77
2018-07-07T13:25:27.616Z,27.03
2018-07-07T13:31:22.604Z,3.93
2018-07-07T13:37:17.625Z,0.41
2018-07-07T13:43:12.620Z,0.3
2018-07-07T13:49:07.679Z,0.31
2018-07-07T13:55:02.732Z,0.3
2018-07-07T14:00:57.668Z,0.3
2018-07-07T14:06:52.662Z,0.3
2018-07-07T14:12:47.662Z,0.3
2018-07-07T14:18:42.697Z,0.3
2018-07-07T14:24:37.657Z,0.3
2018-07-07T14:30:32.676Z,0.3
2018-07-07T14:36:27.688Z,0.3
2018-07-07T14:42:22.674Z,0.3
2018-07-07T14:48:17.662Z,0.3
2018-07-07T14:54:12.708Z,0.3
2018-07-07T15:00:07.703Z,0.3
2018-07-07T15:06:02.728Z,0.3
2018-07-07T15:11:57.686Z,0.3
2018-07-07T15:17:52.717Z,0.3
2018-07-07T15:23:47.722Z,0.3
2018-07-07T15:29:42.734Z,5.27
2018-07-07T15:35:37.701Z,10.22
2018-07-07T15:41:32.697Z,5.58
2018-07-07T15:47:27.789Z,8.96
2018-07-07T15:53:22.717Z,8.01
2018-07-07T15:59:17.696Z,6.1
2018-07-07T16:05:12.774Z,4.5
2018-07-07T16:11:07.718Z,5.04
2018-07-07T16:17:02.734Z,4.34
2018-07-07T16:22:57.722Z,3.86
2018-07-07T16:28:52.748Z,5.95
2018-07-07T16:34:47.813Z,3.68
2018-07-07T16:40:42.737Z,4.68
2018-07-07T16:46:37.732Z,10.05
2018-07-07T16:52:32.719Z,5.67
2018-07-07T16:58:27.852Z,6.11
2018-07-07T17:04:22.762Z,3.94
2018-07-07T17:10:17.752Z,6.68
2018-07-07T17:16:12.758Z,6.3
2018-07-07T17:22:07.780Z,4.61
2018-07-07T17:28:02.750Z,5.97
2018-07-07T17:33:57.782Z,4.93
2018-07-07T17:39:52.773Z,4.72
2018-07-07T17:45:47.774Z,5.78
2018-07-07T17:51:42.756Z,4.99
2018-07-07T17:57:37.838Z,9.13
2018-07-07T18:03:32.844Z,5.73
2018-07-07T18:09:27.837Z,5.7
2018-07-07T18:15:22.851Z,8.94
2018-07-07T18:21:17.788Z,7.03
2018-07-07T18:27:12.796Z,7.1
2018-07-07T18:33:07.781Z,6.85
2018-07-07T18:39:02.862Z,9.16
2018-07-07T18:44:57.852Z,9.44
2018-07-07T18:50:52.849Z,9.28
2018-07-07T18:56:47.889Z,10.74
2018-07-07T19:02:42.836Z,7.03
2018-07-07T19:08:37.869Z,5.85
2018-07-07T19:14:32.873Z,8.64
2018-07-07T19:20:27.860Z,7.87
2018-07-07T19:26:22.832Z,6.43
2018-07-07T19:32:17.867Z,6.14
2018-07-07T19:38:12.889Z,8.26
2018-07-07T19:44:07.891Z,8.97
2018-07-07T19:50:02.838Z,6.63
2018-07-07T19:55:57.894Z,7.92
2018-07-07T20:01:52.926Z,7.93
2018-07-07T20:07:47.880Z,7.99
2018-07-07T20:13:42.863Z,8.86
2018-07-07T20:19:37.864Z,6.83
2018-07-07T20:25:32.849Z,8.02
2018-07-07T20:31:27.850Z,8.04
2018-07-07T20:37:22.874Z,11.64
2018-07-07T20:43:17.987Z,10.54
2018-07-07T20:49:12.874Z,11.34
2018-07-07T20:55:07.903Z,8.21
2018-07-07T21:01:02.880Z,9.06
2018-07-07T21:06:57.892Z,10.82
2018-07-07T21:12:52.903Z,10.99
2018-07-07T21:18:47.876Z,8.75
2018-07-07T21:24:42.883Z,14.43
2018-07-07T21:30:37.881Z,11.09
2018-07-07T21:36:32.918Z,13.91
2018-07-07T21:42:27.996Z,11.25
2018-07-07T21:48:22.933Z,13.9
2018-07-07T21:54:17.905Z,13.77
2018-07-07T22:00:12.957Z,12.94
2018-07-07T22:06:08.040Z,10.63
2018-07-07T22:12:02.985Z,13.53
2018-07-07T22:17:57.976Z,11.07
2018-07-07T22:23:52.927Z,10.94
2018-07-07T22:29:47.928Z,8.42
2018-07-07T22:35:43.019Z,6.72
2018-07-07T22:41:37.955Z,8.49
2018-07-07T22:47:32.933Z,9.37
2018-07-07T22:53:27.944Z,9.62
2018-07-07T22:59:22.943Z,9.93
2018-07-07T23:05:17.975Z,8.79
2018-07-07T23:11:12.980Z,10.46
2018-07-07T23:17:07.977Z,8.33
2018-07-07T23:23:02.951Z,8.28
2018-07-07T23:28:57.965Z,11.47
2018-07-07T23:34:52.967Z,16.88
2018-07-07T23:40:48.058Z,11.77
2018-07-07T23:46:42.987Z,12.64
2018-07-07T23:52:37.984Z,12.37
2018-07-07T23:58:32.986Z,14.5
